Time;durP1;ratioP1;P1;durP2;ratioP2;P2;SDS_P1;SDS_P2;PMS_P1;PMS_P2;Temp;Humidity;BMP_temperature;BMP_pressure;BME280_temperature;BME280_humidity;BME280_pressure;Samples;Min_cycle;Max_cycle;Signal;HPM_P1;HPM_P2
2022/10/25 00:02:07;;;;;;;10.02;1.80;;;12.70;99.90;;;;;;5050066;28;20543;-60
2022/10/25 00:04:34;;;;;;;9.55;1.67;;;12.70;99.90;;;;;;5053652;28;20480;-62
2022/10/25 00:07:00;;;;;;;7.93;1.60;;;12.70;99.90;;;;;;5056738;28;20094;-61
2022/10/25 00:09:27;;;;;;;13.60;2.25;;;12.70;99.90;;;;;;5056564;28;20057;-62
2022/10/25 00:11:54;;;;;;;10.85;1.88;;;12.60;99.90;;;;;;5056524;28;20059;-62
2022/10/25 00:14:20;;;;;;;10.40;1.70;;;12.60;99.90;;;;;;5056651;28;20139;-62
2022/10/25 00:16:47;;;;;;;12.75;2.58;;;12.60;99.90;;;;;;5055032;28;20045;-61
2022/10/25 00:19:14;;;;;;;14.10;2.05;;;12.60;99.90;;;;;;5055970;28;20128;-62
2022/10/25 00:21:40;;;;;;;11.90;1.73;;;12.60;99.90;;;;;;5056513;28;20049;-60
2022/10/25 00:24:09;;;;;;;10.35;2.17;;;12.50;99.90;;;;;;5056506;28;20037;-63
2022/10/25 00:26:36;;;;;;;10.25;1.70;;;12.50;99.90;;;;;;5054779;28;20127;-64
2022/10/25 00:29:03;;;;;;;11.77;1.67;;;12.50;99.90;;;;;;5056389;28;20037;-63
2022/10/25 00:31:30;;;;;;;9.77;1.60;;;12.50;99.90;;;;;;5056289;28;20087;-61
2022/10/25 00:33:56;;;;;;;13.32;2.13;;;12.50;99.90;;;;;;5056047;28;20045;-62
2022/10/25 00:36:23;;;;;;;9.15;1.80;;;12.50;99.90;;;;;;5056526;28;20077;-61
2022/10/25 00:38:50;;;;;;;13.10;2.25;;;12.50;99.90;;;;;;5054197;28;20050;-61
2022/10/25 00:41:16;;;;;;;12.82;2.13;;;12.50;99.90;;;;;;5056091;28;20083;-64
2022/10/25 00:43:43;;;;;;;11.20;2.13;;;12.40;99.90;;;;;;5054600;28;20037;-61
2022/10/25 00:46:10;;;;;;;12.40;2.38;;;12.40;99.90;;;;;;5056354;28;20040;-63
2022/10/25 00:48:36;;;;;;;11.40;2.00;;;12.40;99.90;;;;;;5056120;28;20073;-62
2022/10/25 00:51:03;;;;;;;9.48;1.80;;;12.40;99.90;;;;;;5054988;28;20119;-63
2022/10/25 00:53:31;;;;;;;14.02;2.22;;;12.40;99.90;;;;;;5055056;28;20044;-61
2022/10/25 00:55:57;;;;;;;11.05;1.45;;;12.40;99.90;;;;;;5055734;28;20132;-61
2022/10/25 00:58:24;;;;;;;11.70;1.75;;;12.40;99.90;;;;;;5054671;28;20495;-63
2022/10/25 01:00:51;;;;;;;11.70;2.13;;;12.40;99.90;;;;;;5055806;28;20045;-61
2022/10/25 01:03:18;;;;;;;10.27;1.80;;;12.40;99.90;;;;;;5054175;28;20045;-60
2022/10/25 01:05:44;;;;;;;8.65;2.03;;;12.40;99.90;;;;;;5055499;28;20037;-62
2022/10/25 01:08:11;;;;;;;13.10;2.17;;;12.40;99.90;;;;;;5054339;28;20083;-60
2022/10/25 01:10:38;;;;;;;8.52;1.88;;;12.40;99.90;;;;;;5055730;28;20086;-62
2022/10/25 01:13:04;;;;;;;16.45;2.35;;;12.40;99.90;;;;;;5055178;28;20040;-63
2022/10/25 01:15:31;;;;;;;12.00;2.25;;;12.40;99.90;;;;;;5055285;28;20110;-60
2022/10/25 01:17:58;;;;;;;8.50;1.58;;;12.30;99.90;;;;;;5054242;28;20045;-61
2022/10/25 01:20:25;;;;;;;10.13;2.00;;;12.30;99.90;;;;;;5055688;28;20559;-60
2022/10/25 01:22:51;;;;;;;13.90;2.38;;;12.30;99.90;;;;;;5054792;28;20069;-61
2022/10/25 01:25:18;;;;;;;11.60;2.05;;;12.30;99.90;;;;;;5034872;28;20128;-61
2022/10/25 01:27:45;;;;;;;12.40;1.90;;;12.30;99.90;;;;;;5035164;28;20434;-60
2022/10/25 01:30:11;;;;;;;12.95;2.13;;;12.30;99.90;;;;;;5035015;28;20452;-62
2022/10/25 01:32:38;;;;;;;13.68;1.88;;;12.40;99.90;;;;;;5035384;28;20120;-60
2022/10/25 01:35:05;;;;;;;11.15;1.90;;;12.40;99.90;;;;;;5035027;28;20073;-59
2022/10/25 01:37:31;;;;;;;10.85;1.98;;;12.40;99.90;;;;;;5048758;28;20076;-63
2022/10/25 01:39:58;;;;;;;13.80;2.35;;;12.50;99.90;;;;;;5054509;28;20132;-61
2022/10/25 01:42:25;;;;;;;15.25;2.30;;;12.50;99.90;;;;;;5055015;28;20072;-61
2022/10/25 01:44:53;;;;;;;10.20;2.10;;;12.50;99.90;;;;;;5055295;28;20061;-61
2022/10/25 01:47:19;;;;;;;12.93;1.88;;;12.60;99.90;;;;;;5055212;28;20472;-61
2022/10/25 01:49:46;;;;;;;11.93;2.17;;;12.70;99.90;;;;;;5054512;28;20112;-60
2022/10/25 01:52:13;;;;;;;11.57;2.17;;;12.70;99.90;;;;;;5055439;28;20049;-61
2022/10/25 01:54:39;;;;;;;8.32;1.67;;;12.70;99.90;;;;;;5053697;28;20040;-62
2022/10/25 01:57:06;;;;;;;9.02;1.80;;;12.70;99.90;;;;;;5053856;28;20472;-61
2022/10/25 01:59:33;;;;;;;11.98;2.30;;;12.70;99.90;;;;;;5054722;28;20049;-61
2022/10/25 02:02:00;;;;;;;12.15;2.25;;;12.70;99.90;;;;;;5053420;28;20468;-62
2022/10/25 02:04:26;;;;;;;6.90;1.50;;;12.70;99.90;;;;;;5054723;28;20037;-61
2022/10/25 02:06:53;;;;;;;12.80;1.80;;;12.70;99.90;;;;;;5054168;28;20068;-60
2022/10/25 02:09:20;;;;;;;10.20;1.77;;;12.70;99.90;;;;;;5053140;28;20512;-61
2022/10/25 02:11:46;;;;;;;11.98;1.85;;;12.70;99.90;;;;;;5054139;28;20488;-62
2022/10/25 02:14:13;;;;;;;12.50;1.80;;;12.70;99.90;;;;;;5054401;28;20119;-61
2022/10/25 02:16:40;;;;;;;11.93;1.95;;;12.60;99.90;;;;;;5053823;28;20094;-61
2022/10/25 02:19:07;;;;;;;12.43;1.70;;;12.60;99.90;;;;;;5051993;28;20055;-62
2022/10/25 02:21:33;;;;;;;13.77;1.95;;;12.60;99.90;;;;;;5053947;28;20045;-62
2022/10/25 02:24:00;;;;;;;12.95;1.90;;;12.60;99.90;;;;;;5053134;28;20037;-61
2022/10/25 02:26:27;;;;;;;10.80;1.60;;;12.60;99.90;;;;;;5045642;28;20069;-60
2022/10/25 02:28:53;;;;;;;11.00;1.70;;;12.60;99.90;;;;;;5065795;28;20072;-61
2022/10/25 02:31:20;;;;;;;12.93;1.88;;;12.60;99.90;;;;;;5034025;28;20128;-59
2022/10/25 02:33:47;;;;;;;11.57;2.25;;;12.50;99.90;;;;;;5033817;28;20080;-60
2022/10/25 02:36:13;;;;;;;10.73;2.15;;;12.50;99.90;;;;;;5033748;28;20115;-60
2022/10/25 02:38:40;;;;;;;13.23;2.08;;;12.50;99.90;;;;;;5047679;28;20536;-61
2022/10/25 02:41:07;;;;;;;9.82;2.17;;;12.50;99.90;;;;;;5053978;28;20079;-63
2022/10/25 02:43:34;;;;;;;10.05;2.00;;;12.50;99.90;;;;;;5051441;28;20043;-61
2022/10/25 02:46:00;;;;;;;16.55;2.25;;;12.50;99.90;;;;;;5053712;28;20040;-62
2022/10/25 02:48:27;;;;;;;12.35;1.83;;;12.50;99.90;;;;;;5054148;28;20080;-62
2022/10/25 02:50:54;;;;;;;14.88;1.75;;;12.50;99.90;;;;;;5053629;28;20111;-61
2022/10/25 02:53:20;;;;;;;11.63;1.98;;;12.50;99.90;;;;;;5052733;28;20095;-62
2022/10/25 02:55:47;;;;;;;7.55;1.55;;;12.50;99.90;;;;;;5052737;28;20041;-62
2022/10/25 02:58:14;;;;;;;10.50;2.05;;;12.50;99.90;;;;;;5053959;28;20043;-64
2022/10/25 03:00:40;;;;;;;9.95;1.73;;;12.40;99.90;;;;;;5053447;28;20064;-62
2022/10/25 03:03:07;;;;;;;9.88;2.08;;;12.40;99.90;;;;;;5051990;28;20386;-62
2022/10/25 03:05:34;;;;;;;13.52;2.35;;;12.40;99.90;;;;;;5053464;28;20049;-61
2022/10/25 03:08:01;;;;;;;14.55;2.88;;;12.40;99.90;;;;;;5053289;28;20061;-62
2022/10/25 03:10:28;;;;;;;12.60;1.67;;;12.40;99.90;;;;;;5053493;28;20435;-61
2022/10/25 03:12:54;;;;;;;17.27;1.73;;;12.40;99.90;;;;;;5053935;28;20052;-60
2022/10/25 03:15:21;;;;;;;9.27;1.45;;;12.40;99.90;;;;;;5051370;28;20068;-60
2022/10/25 03:17:48;;;;;;;12.43;1.73;;;12.40;99.90;;;;;;5052155;28;20102;-61
2022/10/25 03:20:15;;;;;;;12.38;1.98;;;12.40;99.90;;;;;;5053122;28;20124;-60
2022/10/25 03:22:42;;;;;;;13.45;2.10;;;12.40;99.90;;;;;;5051262;28;20076;-62
2022/10/25 03:25:08;;;;;;;13.07;1.83;;;12.40;99.90;;;;;;5051875;28;20128;-62
2022/10/25 03:27:35;;;;;;;13.63;2.22;;;12.40;99.90;;;;;;5052565;28;20480;-60
2022/10/25 03:30:02;;;;;;;10.05;2.03;;;12.40;99.90;;;;;;5053772;28;20072;-60
2022/10/25 03:32:28;;;;;;;12.93;1.70;;;12.40;99.90;;;;;;5057160;28;20076;-61
2022/10/25 03:34:55;;;;;;;13.70;2.25;;;12.40;99.90;;;;;;5057136;28;20056;-62
2022/10/25 03:37:22;;;;;;;15.05;2.00;;;12.40;99.90;;;;;;5056080;28;20072;-61
2022/10/25 03:39:49;;;;;;;14.95;2.13;;;12.30;99.90;;;;;;5038228;28;20100;-62
2022/10/25 03:42:15;;;;;;;15.65;2.20;;;12.40;99.90;;;;;;5037258;28;20374;-61
2022/10/25 03:44:42;;;;;;;15.55;2.10;;;12.40;99.90;;;;;;5039868;28;20060;-60
2022/10/25 03:47:09;;;;;;;18.63;2.55;;;12.40;99.90;;;;;;5057261;28;20079;-62
2022/10/25 03:49:35;;;;;;;12.32;2.10;;;12.30;99.90;;;;;;5055020;28;20041;-60
2022/10/25 03:52:04;;;;;;;12.93;2.22;;;12.30;99.90;;;;;;5057231;28;20491;-63
2022/10/25 03:54:31;;;;;;;12.75;2.03;;;12.30;99.90;;;;;;5056762;28;20132;-62
2022/10/25 03:56:58;;;;;;;18.67;2.20;;;12.30;99.90;;;;;;5043176;28;20049;-61
2022/10/25 03:59:25;;;;;;;16.90;2.05;;;12.30;99.90;;;;;;5038916;28;20086;-62
2022/10/25 04:01:51;;;;;;;16.33;2.10;;;12.30;99.90;;;;;;5056589;28;20045;-60
2022/10/25 04:04:18;;;;;;;12.10;2.05;;;12.30;99.90;;;;;;5054352;28;20049;-60
2022/10/25 04:06:45;;;;;;;14.73;2.05;;;12.30;99.90;;;;;;5056979;28;20048;-60
2022/10/25 04:09:12;;;;;;;18.10;2.58;;;12.30;99.90;;;;;;5052468;28;20125;-61
2022/10/25 04:11:38;;;;;;;16.25;2.10;;;12.30;99.90;;;;;;5057012;28;20091;-60
2022/10/25 04:14:05;;;;;;;10.55;1.90;;;12.30;99.90;;;;;;5054989;28;20473;-62
2022/10/25 04:16:32;;;;;;;13.55;2.10;;;12.30;99.90;;;;;;5054473;28;20041;-61
2022/10/25 04:18:58;;;;;;;16.10;2.35;;;12.30;99.90;;;;;;5056416;28;20552;-63
2022/10/25 04:21:25;;;;;;;18.75;2.75;;;12.30;99.90;;;;;;5054156;28;20102;-61
2022/10/25 04:23:52;;;;;;;12.30;1.67;;;12.30;99.90;;;;;;5046580;28;21955;-60
2022/10/25 04:26:19;;;;;;;12.43;2.28;;;12.20;99.90;;;;;;5049983;28;20091;-62
2022/10/25 04:28:45;;;;;;;14.45;2.17;;;12.20;99.90;;;;;;5055048;28;20075;-60
2022/10/25 04:31:12;;;;;;;16.88;2.10;;;12.20;99.90;;;;;;5054004;28;20072;-63
2022/10/25 04:33:39;;;;;;;17.50;2.60;;;12.20;99.90;;;;;;5054606;28;20082;-61
2022/10/25 04:36:09;;;;;;;13.68;2.20;;;12.20;99.90;;;;;;5056401;28;20123;-61
2022/10/25 04:38:36;;;;;;;11.80;1.88;;;12.30;99.90;;;;;;5056619;28;20112;-61
2022/10/25 04:41:02;;;;;;;14.55;1.88;;;12.20;99.90;;;;;;5056077;28;20120;-61
2022/10/25 04:43:29;;;;;;;16.10;2.00;;;12.30;99.90;;;;;;5054459;28;20111;-62
2022/10/25 04:45:56;;;;;;;17.10;2.00;;;12.20;99.90;;;;;;5055108;28;20061;-63
2022/10/25 04:48:23;;;;;;;14.40;2.42;;;12.30;99.90;;;;;;5052348;28;20116;-60
2022/10/25 04:50:49;;;;;;;13.57;2.00;;;12.30;99.90;;;;;;5055889;28;20083;-61
2022/10/25 04:53:16;;;;;;;12.15;2.05;;;12.30;99.90;;;;;;5055924;28;20063;-61
2022/10/25 04:55:43;;;;;;;14.38;2.10;;;12.20;99.90;;;;;;5054315;28;20119;-60
2022/10/25 04:58:09;;;;;;;10.13;1.80;;;12.30;99.90;;;;;;5053437;28;20554;-62
2022/10/25 05:00:36;;;;;;;12.95;2.50;;;12.20;99.90;;;;;;5052498;28;20051;-61
2022/10/25 05:03:03;;;;;;;14.98;2.47;;;12.30;99.90;;;;;;5053049;28;20075;-62
2022/10/25 05:05:31;;;;;;;16.48;2.30;;;12.30;99.90;;;;;;5053766;28;20037;-61
2022/10/25 05:07:57;;;;;;;16.05;2.25;;;12.20;99.90;;;;;;5053929;28;20041;-62
2022/10/25 05:10:24;;;;;;;15.77;2.00;;;12.20;99.90;;;;;;5055307;28;20077;-63
2022/10/25 05:12:51;;;;;;;19.55;3.05;;;12.20;99.90;;;;;;5053457;28;20037;-63
2022/10/25 05:15:18;;;;;;;9.55;1.83;;;12.20;99.90;;;;;;5053322;28;20068;-63
2022/10/25 05:17:44;;;;;;;12.32;1.90;;;12.20;99.90;;;;;;5053393;28;20148;-60
2022/10/25 05:20:11;;;;;;;11.98;1.80;;;12.20;99.90;;;;;;5055277;28;20081;-61
2022/10/25 05:22:38;;;;;;;15.25;2.53;;;12.20;99.90;;;;;;5055443;28;20084;-62
2022/10/25 05:25:04;;;;;;;11.45;1.90;;;12.20;99.90;;;;;;5050790;28;20060;-63
2022/10/25 05:27:31;;;;;;;13.00;2.50;;;12.20;99.90;;;;;;5054887;28;20120;-61
2022/10/25 05:29:58;;;;;;;13.13;2.30;;;12.20;99.90;;;;;;5053309;28;20037;-60
2022/10/25 05:32:24;;;;;;;13.80;2.17;;;12.20;99.90;;;;;;5053319;28;20124;-61
2022/10/25 05:34:51;;;;;;;16.80;2.22;;;12.20;99.90;;;;;;5052860;28;20144;-61
2022/10/25 05:37:18;;;;;;;12.77;2.65;;;12.20;99.90;;;;;;5055122;28;20116;-61
2022/10/25 05:39:44;;;;;;;11.55;2.15;;;12.20;99.90;;;;;;5052015;28;20045;-61
2022/10/25 05:42:11;;;;;;;16.20;2.72;;;12.30;99.90;;;;;;5035185;28;20046;-62
2022/10/25 05:44:38;;;;;;;10.70;1.88;;;12.30;99.90;;;;;;5051437;28;20150;-60
2022/10/25 05:47:04;;;;;;;18.38;2.05;;;12.30;99.90;;;;;;5055265;28;20084;-61
2022/10/25 05:49:33;;;;;;;12.20;1.83;;;12.40;99.90;;;;;;5055099;28;20441;-61
2022/10/25 05:51:59;;;;;;;16.95;2.38;;;12.40;99.90;;;;;;5052945;28;20108;-60
2022/10/25 05:54:26;;;;;;;16.00;2.08;;;12.50;99.90;;;;;;5048832;28;20076;-61
2022/10/25 05:56:53;;;;;;;10.15;1.75;;;12.50;99.90;;;;;;5039054;28;20033;-61
2022/10/25 05:59:19;;;;;;;15.27;2.47;;;12.50;99.90;;;;;;5047491;28;20480;-61
2022/10/25 06:01:46;;;;;;;14.07;2.05;;;12.60;99.90;;;;;;5049789;28;20070;-62
2022/10/25 06:04:13;;;;;;;12.55;2.10;;;12.60;99.90;;;;;;5052313;28;20403;-63
2022/10/25 06:06:40;;;;;;;16.92;2.20;;;12.60;99.90;;;;;;5052204;28;20116;-60
2022/10/25 06:09:06;;;;;;;16.23;1.95;;;12.60;99.90;;;;;;5052191;28;20136;-62
2022/10/25 06:11:33;;;;;;;14.13;2.08;;;12.70;99.90;;;;;;5054496;28;20476;-63
2022/10/25 06:14:00;;;;;;;11.70;1.95;;;12.70;99.90;;;;;;5052112;28;20041;-63
2022/10/25 06:16:26;;;;;;;14.38;1.83;;;12.70;99.90;;;;;;5048278;28;20451;-61
2022/10/25 06:18:53;;;;;;;12.23;1.83;;;12.70;99.90;;;;;;5042978;28;20052;-61
2022/10/25 06:21:20;;;;;;;16.50;1.70;;;12.80;99.90;;;;;;5054292;28;20098;-61
2022/10/25 06:23:47;;;;;;;15.30;2.78;;;12.80;99.90;;;;;;5050045;28;20124;-61
2022/10/25 06:26:13;;;;;;;16.83;2.40;;;12.80;99.90;;;;;;5047811;28;20119;-61
2022/10/25 06:28:40;;;;;;;17.10;2.30;;;12.80;99.90;;;;;;5036938;28;20065;-64
2022/10/25 06:31:07;;;;;;;13.95;2.15;;;12.80;99.90;;;;;;5051790;28;20476;-61
2022/10/25 06:33:33;;;;;;;15.52;2.40;;;12.70;99.90;;;;;;5052247;28;20136;-61
2022/10/25 06:36:00;;;;;;;16.08;2.55;;;12.70;99.90;;;;;;5046983;28;20128;-63
2022/10/25 06:38:27;;;;;;;16.67;2.10;;;12.70;99.90;;;;;;5051899;28;20048;-61
2022/10/25 06:40:54;;;;;;;14.35;2.00;;;12.70;99.90;;;;;;5047719;28;20124;-63
2022/10/25 06:43:20;;;;;;;13.10;2.40;;;12.70;99.90;;;;;;5051262;28;20493;-62
2022/10/25 06:45:47;;;;;;;14.57;2.25;;;12.70;99.90;;;;;;5050928;28;20072;-63
2022/10/25 06:48:14;;;;;;;14.02;2.60;;;12.70;99.90;;;;;;5050583;28;20445;-62
2022/10/25 06:50:40;;;;;;;11.80;2.20;;;12.70;99.90;;;;;;5037883;28;20043;-62
2022/10/25 06:53:07;;;;;;;11.20;2.10;;;12.70;99.90;;;;;;5046551;28;20116;-61
2022/10/25 06:55:34;;;;;;;17.30;2.75;;;12.70;99.90;;;;;;5046749;28;20053;-61
2022/10/25 06:58:01;;;;;;;11.93;2.22;;;12.80;99.90;;;;;;5048149;28;20064;-63
2022/10/25 07:00:27;;;;;;;12.30;2.17;;;12.80;99.90;;;;;;5049619;28;20437;-60
2022/10/25 07:02:54;;;;;;;12.73;1.92;;;12.90;99.90;;;;;;5049469;28;20045;-62
2022/10/25 07:05:21;;;;;;;13.18;2.10;;;12.90;99.90;;;;;;5036928;28;20043;-62
2022/10/25 07:07:48;;;;;;;13.20;2.47;;;13.00;99.90;;;;;;5050604;28;20079;-60
2022/10/25 07:10:15;;;;;;;14.23;2.95;;;13.00;99.90;;;;;;5048529;28;20124;-62
2022/10/25 07:12:41;;;;;;;16.92;2.90;;;13.00;99.90;;;;;;5034111;28;20054;-63
2022/10/25 07:15:08;;;;;;;16.63;2.60;;;13.10;99.90;;;;;;5041997;28;20099;-62
2022/10/25 07:17:35;;;;;;;15.18;2.67;;;13.10;99.90;;;;;;5033829;28;20478;-61
2022/10/25 07:20:02;;;;;;;14.60;3.42;;;13.20;99.90;;;;;;5041251;28;20041;-61
2022/10/25 07:22:28;;;;;;;17.75;3.80;;;13.20;99.90;;;;;;5047486;28;20068;-60
2022/10/25 07:24:55;;;;;;;10.35;2.22;;;13.20;99.90;;;;;;5050123;28;20040;-63
2022/10/25 07:27:22;;;;;;;13.00;2.35;;;13.20;99.90;;;;;;5040774;28;20099;-62
2022/10/25 07:29:48;;;;;;;12.80;2.15;;;13.30;99.90;;;;;;5050953;28;20443;-62
2022/10/25 07:32:15;;;;;;;13.75;2.00;;;13.30;99.90;;;;;;5043884;28;20083;-61
2022/10/25 07:34:42;;;;;;;13.10;2.63;;;13.30;99.90;;;;;;5049394;28;20055;-63
2022/10/25 07:37:08;;;;;;;12.65;3.10;;;13.40;99.90;;;;;;5046635;28;20077;-62
2022/10/25 07:39:35;;;;;;;9.25;1.80;;;13.40;99.90;;;;;;5043765;28;20045;-61
2022/10/25 07:42:02;;;;;;;12.95;3.17;;;13.50;99.90;;;;;;5049966;28;20094;-61
2022/10/25 07:44:29;;;;;;;13.90;2.03;;;13.50;99.90;;;;;;5051804;28;20045;-61
2022/10/25 07:46:55;;;;;;;11.45;1.65;;;13.50;99.90;;;;;;5052529;28;20111;-62
2022/10/25 07:49:22;;;;;;;11.98;2.33;;;13.50;99.90;;;;;;5051672;28;20041;-61
2022/10/25 07:51:49;;;;;;;8.77;1.50;;;13.60;99.90;;;;;;5052944;28;20045;-62
2022/10/25 07:54:16;;;;;;;6.20;1.42;;;13.60;99.90;;;;;;5052358;28;20120;-61
2022/10/25 07:56:42;;;;;;;8.80;1.95;;;13.60;99.90;;;;;;5048810;28;20045;-62
2022/10/25 07:59:09;;;;;;;10.15;1.50;;;13.60;99.90;;;;;;5045115;28;20091;-61
2022/10/25 08:01:36;;;;;;;6.95;1.65;;;13.60;99.90;;;;;;5047416;28;20434;-61
2022/10/25 08:04:03;;;;;;;6.47;1.48;;;13.60;99.90;;;;;;5044010;28;20419;-61
2022/10/25 08:06:30;;;;;;;8.27;2.28;;;13.60;99.90;;;;;;5049061;28;20045;-61
2022/10/25 08:08:57;;;;;;;10.48;2.60;;;13.50;99.90;;;;;;5051233;28;20067;-61
2022/10/25 08:11:40;;;;;;;10.55;3.50;;;13.50;99.90;;;;;;5046268;28;20045;-61
2022/10/25 08:14:07;;;;;;;10.55;3.95;;;13.50;99.90;;;;;;5043572;28;20531;-61
2022/10/25 08:16:33;;;;;;;12.27;4.20;;;13.50;99.90;;;;;;5047965;28;20474;-63
2022/10/25 08:19:00;;;;;;;14.40;4.28;;;13.50;99.90;;;;;;5051958;28;20048;-62
2022/10/25 08:21:27;;;;;;;15.35;4.40;;;13.50;99.90;;;;;;5053441;28;20045;-62
2022/10/25 08:23:53;;;;;;;14.15;3.75;;;13.50;99.90;;;;;;5054780;28;20431;-60
2022/10/25 08:26:23;;;;;;;13.23;3.83;;;13.50;99.90;;;;;;5054939;28;20045;-60
2022/10/25 08:28:50;;;;;;;12.23;3.25;;;13.50;99.90;;;;;;5055685;28;20041;-64
2022/10/25 08:31:17;;;;;;;10.90;2.83;;;13.50;99.90;;;;;;5055270;28;20049;-61
2022/10/25 08:33:44;;;;;;;12.35;2.35;;;13.60;99.90;;;;;;5049738;28;20080;-59
2022/10/25 08:36:10;;;;;;;10.98;2.60;;;13.60;99.90;;;;;;5050512;28;20045;-62
2022/10/25 08:38:37;;;;;;;13.90;2.97;;;13.60;99.90;;;;;;5057208;28;20049;-62
2022/10/25 08:41:05;;;;;;;14.57;3.25;;;13.70;99.90;;;;;;5055023;28;20115;-60
2022/10/25 08:43:32;;;;;;;11.88;2.33;;;13.70;99.90;;;;;;5054812;28;20392;-61
2022/10/25 08:45:59;;;;;;;13.70;2.60;;;13.80;99.90;;;;;;5053843;28;20123;-61
2022/10/25 08:48:25;;;;;;;12.23;2.45;;;13.90;99.90;;;;;;5054531;28;20097;-61
2022/10/25 08:50:52;;;;;;;11.65;2.00;;;13.90;99.90;;;;;;5051635;28;20037;-62
2022/10/25 08:53:19;;;;;;;14.40;2.28;;;14.00;99.90;;;;;;5049007;28;20381;-60
2022/10/25 08:55:45;;;;;;;15.25;2.80;;;14.10;99.90;;;;;;5053714;28;20037;-60
2022/10/25 08:58:32;;;;;;;12.02;2.13;;;14.10;99.90;;;;;;5052490;28;20381;-61
2022/10/25 09:00:59;;;;;;;14.68;2.35;;;14.20;99.90;;;;;;5053660;28;20072;-60
2022/10/25 09:03:26;;;;;;;16.63;2.00;;;14.20;99.90;;;;;;5053651;28;20488;-58
2022/10/25 09:05:52;;;;;;;11.73;1.90;;;14.30;99.90;;;;;;5052400;28;20064;-59
2022/10/25 09:08:19;;;;;;;14.88;2.80;;;14.30;99.90;;;;;;5053565;28;20098;-58
2022/10/25 09:10:46;;;;;;;10.60;1.98;;;14.30;99.90;;;;;;5053428;28;20044;-60
2022/10/25 09:13:13;;;;;;;15.05;3.97;;;14.40;99.90;;;;;;5054697;28;20069;-60
2022/10/25 09:15:39;;;;;;;14.23;2.75;;;14.40;99.90;;;;;;5054304;28;20041;-60
2022/10/25 09:18:08;;;;;;;13.32;2.75;;;14.40;99.90;;;;;;5053154;28;20056;-62
2022/10/25 09:20:35;;;;;;;12.60;2.95;;;14.40;99.90;;;;;;5053818;28;20040;-60
2022/10/25 09:23:02;;;;;;;14.50;3.70;;;14.50;99.90;;;;;;5053315;28;20037;-62
2022/10/25 09:25:29;;;;;;;13.52;2.85;;;14.60;99.90;;;;;;5053593;28;20041;-61
2022/10/25 09:27:55;;;;;;;18.73;3.47;;;14.60;99.90;;;;;;5053748;28;20120;-60
2022/10/25 09:30:22;;;;;;;12.75;3.30;;;14.60;99.90;;;;;;5054405;28;20481;-61
2022/10/25 09:32:49;;;;;;;16.70;2.75;;;14.60;99.90;;;;;;5053856;28;20072;-60
2022/10/25 09:35:15;;;;;;;12.32;2.83;;;14.70;99.90;;;;;;5054710;28;20437;-60
2022/10/25 09:37:42;;;;;;;15.30;3.00;;;14.70;99.90;;;;;;5054701;28;20435;-63
2022/10/25 09:40:09;;;;;;;18.05;5.60;;;14.80;99.90;;;;;;5054603;28;20037;-62
2022/10/25 09:42:36;;;;;;;16.85;3.97;;;14.80;99.90;;;;;;5054372;28;20057;-60
2022/10/25 09:45:02;;;;;;;11.40;3.22;;;14.90;99.90;;;;;;5054474;28;20515;-62
2022/10/25 09:47:29;;;;;;;14.80;3.15;;;14.90;99.90;;;;;;5054336;28;20099;-62
2022/10/25 09:49:56;;;;;;;15.63;2.80;;;14.90;99.90;;;;;;5054241;28;20132;-62
2022/10/25 09:52:23;;;;;;;11.70;2.80;;;15.00;99.90;;;;;;5053683;28;20504;-61
2022/10/25 09:54:49;;;;;;;13.55;2.13;;;15.00;99.90;;;;;;5054177;28;20079;-62
2022/10/25 09:57:16;;;;;;;15.82;2.65;;;15.00;99.90;;;;;;5054150;28;20079;-60
2022/10/25 09:59:43;;;;;;;8.65;1.88;;;15.00;99.90;;;;;;5053180;28;20466;-59
2022/10/25 10:02:09;;;;;;;15.10;2.70;;;15.10;99.90;;;;;;5053643;28;20099;-61
2022/10/25 10:04:36;;;;;;;13.73;3.05;;;15.10;99.90;;;;;;5051964;28;20124;-60
2022/10/25 10:07:03;;;;;;;13.40;2.90;;;15.20;99.90;;;;;;5053859;28;20037;-60
2022/10/25 10:09:30;;;;;;;12.77;2.58;;;15.20;99.90;;;;;;5068504;28;20049;-62
2022/10/25 10:11:57;;;;;;;16.17;3.03;;;15.20;99.90;;;;;;5053580;28;20385;-61
2022/10/25 10:14:23;;;;;;;12.45;2.35;;;15.20;99.90;;;;;;5053504;28;20084;-61
2022/10/25 10:16:50;;;;;;;9.68;2.35;;;15.30;99.90;;;;;;5052876;28;20120;-60
2022/10/25 10:19:17;;;;;;;10.35;2.05;;;15.40;99.90;;;;;;5053644;28;20045;-61
2022/10/25 10:21:44;;;;;;;16.10;2.35;;;15.50;99.90;;;;;;5052873;28;20040;-60
2022/10/25 10:24:10;;;;;;;12.25;2.55;;;15.50;99.90;;;;;;5053236;28;20076;-60
2022/10/25 10:26:37;;;;;;;9.40;2.00;;;15.50;99.90;;;;;;5053440;28;20041;-61
2022/10/25 10:29:04;;;;;;;13.32;2.40;;;15.60;99.90;;;;;;5052598;28;20530;-60
2022/10/25 10:31:35;;;;;;;13.68;2.47;;;15.60;99.90;;;;;;5052998;28;20112;-61
2022/10/25 10:34:01;;;;;;;8.02;1.75;;;15.60;99.90;;;;;;5052912;28;20141;-62
2022/10/25 10:36:28;;;;;;;10.05;2.10;;;15.70;99.90;;;;;;5053139;28;20053;-59
2022/10/25 10:38:55;;;;;;;10.63;2.70;;;15.80;99.90;;;;;;5053388;28;20436;-61
2022/10/25 10:41:23;;;;;;;5.32;1.30;;;15.80;99.90;;;;;;5052419;28;20087;-61
2022/10/25 10:43:49;;;;;;;8.30;1.60;;;15.90;99.90;;;;;;5053332;28;20049;-60
2022/10/25 10:46:16;;;;;;;8.50;1.90;;;15.90;99.90;;;;;;5053168;28;20037;-61
2022/10/25 10:48:43;;;;;;;8.93;1.80;;;16.00;99.90;;;;;;5052563;28;20124;-60
2022/10/25 10:51:09;;;;;;;9.90;1.77;;;16.00;99.90;;;;;;5049925;28;20037;-59
2022/10/25 10:53:56;;;;;;;11.52;1.80;;;16.00;99.90;;;;;;5048840;28;20060;-60
2022/10/25 10:56:23;;;;;;;12.32;1.90;;;15.90;99.90;;;;;;5046691;28;20393;-59
2022/10/25 10:58:50;;;;;;;8.50;1.70;;;16.00;99.90;;;;;;5048577;28;20045;-61
2022/10/25 11:01:19;;;;;;;15.15;2.70;;;16.00;99.90;;;;;;5050146;28;20041;-62
2022/10/25 11:03:46;;;;;;;9.57;2.05;;;16.00;99.90;;;;;;5047873;28;20044;-60
2022/10/25 11:06:26;;;;;;;11.45;2.30;;;16.00;99.90;;;;;;5046136;28;20041;-62
2022/10/25 11:08:52;;;;;;;8.20;2.05;;;15.90;99.90;;;;;;5042133;28;20068;-62
2022/10/25 11:11:19;;;;;;;5.10;1.60;;;16.00;99.90;;;;;;5046815;28;20116;-62
2022/10/25 11:13:48;;;;;;;8.07;2.20;;;16.00;99.90;;;;;;5048673;28;20128;-61
2022/10/25 11:16:16;;;;;;;13.85;6.35;;;16.00;99.90;;;;;;5046382;28;20087;-60
2022/10/25 11:18:43;;;;;;;7.50;2.28;;;16.00;99.90;;;;;;5045301;28;20128;-61
2022/10/25 11:21:10;;;;;;;5.88;1.70;;;15.90;99.90;;;;;;5043382;28;20100;-61
2022/10/25 11:23:36;;;;;;;8.85;1.63;;;15.90;99.90;;;;;;5047403;28;20472;-62
2022/10/25 11:26:03;;;;;;;4.65;1.38;;;15.90;99.90;;;;;;5045471;28;20120;-60
2022/10/25 11:28:30;;;;;;;5.97;1.42;;;16.00;99.90;;;;;;5039156;28;20045;-61
2022/10/25 11:30:56;;;;;;;5.60;1.40;;;16.10;99.90;;;;;;5042000;28;20037;-62
2022/10/25 11:33:23;;;;;;;4.03;1.23;;;16.10;99.90;;;;;;5052615;28;20498;-60
2022/10/25 11:35:50;;;;;;;5.40;1.38;;;16.10;99.90;;;;;;5043426;28;20460;-64
2022/10/25 11:38:17;;;;;;;4.90;1.30;;;16.20;99.90;;;;;;5048555;28;20045;-63
2022/10/25 11:40:43;;;;;;;8.15;2.08;;;16.20;99.90;;;;;;5041885;28;20117;-64
2022/10/25 11:43:10;;;;;;;7.25;1.40;;;16.30;99.90;;;;;;5046297;28;20047;-64
2022/10/25 11:45:38;;;;;;;7.50;1.60;;;16.30;99.90;;;;;;5043682;28;20049;-63
2022/10/25 11:48:05;;;;;;;4.78;1.13;;;16.30;99.90;;;;;;5045896;28;20087;-62
2022/10/25 11:50:31;;;;;;;6.20;1.35;;;16.40;99.90;;;;;;5052321;28;20049;-62
2022/10/25 11:52:58;;;;;;;5.68;1.27;;;16.40;99.90;;;;;;5053359;28;20432;-64
2022/10/25 11:55:25;;;;;;;8.80;1.45;;;16.40;99.90;;;;;;5055272;28;20468;-61
2022/10/25 11:57:51;;;;;;;6.97;1.50;;;16.40;99.90;;;;;;5053662;28;20041;-62
2022/10/25 12:00:18;;;;;;;5.85;1.50;;;16.50;99.90;;;;;;5044165;28;20068;-62
2022/10/25 12:02:45;;;;;;;6.50;2.28;;;16.40;99.90;;;;;;5056053;28;20044;-63
2022/10/25 12:05:12;;;;;;;6.97;1.45;;;16.50;99.90;;;;;;5055189;28;20064;-64
2022/10/25 12:07:39;;;;;;;7.05;1.83;;;16.60;99.90;;;;;;5052999;28;20037;-64
2022/10/25 12:10:06;;;;;;;7.10;1.42;;;16.70;99.90;;;;;;5048665;28;20111;-62
2022/10/25 12:12:33;;;;;;;7.38;1.38;;;16.80;99.90;;;;;;5052222;28;20037;-61
2022/10/25 12:14:59;;;;;;;4.93;1.15;;;16.90;99.90;;;;;;5040645;28;20084;-59
2022/10/25 12:17:26;;;;;;;4.13;1.02;;;16.90;99.90;;;;;;5051394;28;20435;-60
2022/10/25 12:19:53;;;;;;;5.20;0.80;;;16.90;99.90;;;;;;5051811;28;20393;-60
2022/10/25 12:22:19;;;;;;;5.05;1.15;;;16.90;99.90;;;;;;5042967;28;20072;-61
2022/10/25 12:24:46;;;;;;;5.65;1.02;;;16.90;99.90;;;;;;5043410;28;20141;-60
2022/10/25 12:27:13;;;;;;;4.80;0.80;;;17.00;99.90;;;;;;5047492;28;20120;-61
2022/10/25 12:29:39;;;;;;;4.65;0.93;;;16.90;99.90;;;;;;5046312;28;20045;-62
2022/10/25 12:32:06;;;;;;;4.32;0.90;;;16.90;99.90;;;;;;5051209;28;20069;-62
2022/10/25 12:34:33;;;;;;;7.50;1.10;;;16.90;99.90;;;;;;5048747;28;20052;-62
2022/10/25 12:36:59;;;;;;;3.60;0.80;;;16.90;99.90;;;;;;5049856;28;20133;-62